sensor_id;sensor_type;location;lat;lon;timestamp;temperature;humidity
67862;DHT22;54665;51.462;6.698;2022-08-19T00:00:18;16.95;93.54
67862;DHT22;54665;51.462;6.698;2022-08-19T00:02:44;16.95;93.73
67862;DHT22;54665;51.462;6.698;2022-08-19T00:05:12;16.96;93.80
67862;DHT22;54665;51.462;6.698;2022-08-19T00:07:37;16.95;93.91
67862;DHT22;54665;51.462;6.698;2022-08-19T00:10:07;16.88;93.95
67862;DHT22;54665;51.462;6.698;2022-08-19T00:12:33;16.82;93.97
67862;DHT22;54665;51.462;6.698;2022-08-19T00:14:59;16.71;93.98
67862;DHT22;54665;51.462;6.698;2022-08-19T00:17:25;16.61;93.65
67862;DHT22;54665;51.462;6.698;2022-08-19T00:19:50;16.60;93.82
67862;DHT22;54665;51.462;6.698;2022-08-19T00:22:16;16.57;94.12
67862;DHT22;54665;51.462;6.698;2022-08-19T00:24:44;16.58;94.28
67862;DHT22;54665;51.462;6.698;2022-08-19T00:27:11;16.61;94.41
67862;DHT22;54665;51.462;6.698;2022-08-19T00:29:37;16.61;94.49
67862;DHT22;54665;51.462;6.698;2022-08-19T00:32:03;16.53;94.10
67862;DHT22;54665;51.462;6.698;2022-08-19T00:34:29;16.51;94.15
67862;DHT22;54665;51.462;6.698;2022-08-19T00:36:56;16.48;94.32
67862;DHT22;54665;51.462;6.698;2022-08-19T00:39:21;16.44;94.48
67862;DHT22;54665;51.462;6.698;2022-08-19T00:41:48;16.48;94.57
67862;DHT22;54665;51.462;6.698;2022-08-19T00:44:16;16.54;94.73
67862;DHT22;54665;51.462;6.698;2022-08-19T00:46:47;16.53;94.78
67862;DHT22;54665;51.462;6.698;2022-08-19T00:49:19;16.53;94.85
67862;DHT22;54665;51.462;6.698;2022-08-19T00:51:47;16.50;94.94
67862;DHT22;54665;51.462;6.698;2022-08-19T00:54:15;16.53;95.02
67862;DHT22;54665;51.462;6.698;2022-08-19T00:56:42;16.48;95.10
67862;DHT22;54665;51.462;6.698;2022-08-19T00:59:08;16.44;95.17
67862;DHT22;54665;51.462;6.698;2022-08-19T01:01:36;16.47;95.28
67862;DHT22;54665;51.462;6.698;2022-08-19T01:04:02;16.43;95.33
67862;DHT22;54665;51.462;6.698;2022-08-19T01:06:28;16.48;95.39
67862;DHT22;54665;51.462;6.698;2022-08-19T01:08:57;16.48;95.42
67862;DHT22;54665;51.462;6.698;2022-08-19T01:11:23;16.47;95.50
67862;DHT22;54665;51.462;6.698;2022-08-19T01:13:50;16.47;95.53
67862;DHT22;54665;51.462;6.698;2022-08-19T01:16:19;16.48;95.65
67862;DHT22;54665;51.462;6.698;2022-08-19T01:18:45;16.47;95.68
67862;DHT22;54665;51.462;6.698;2022-08-19T01:21:34;16.37;95.72
67862;DHT22;54665;51.462;6.698;2022-08-19T01:24:03;16.40;95.76
67862;DHT22;54665;51.462;6.698;2022-08-19T01:26:28;16.37;95.82
67862;DHT22;54665;51.462;6.698;2022-08-19T01:28:57;16.36;95.84
67862;DHT22;54665;51.462;6.698;2022-08-19T01:31:26;16.27;95.84
67862;DHT22;54665;51.462;6.698;2022-08-19T01:33:57;16.20;95.91
67862;DHT22;54665;51.462;6.698;2022-08-19T01:36:43;16.18;95.98
67862;DHT22;54665;51.462;6.698;2022-08-19T01:39:17;16.16;95.99
67862;DHT22;54665;51.462;6.698;2022-08-19T01:41:42;16.03;95.95
67862;DHT22;54665;51.462;6.698;2022-08-19T01:44:09;15.99;95.94
67862;DHT22;54665;51.462;6.698;2022-08-19T01:46:35;16.10;96.07
67862;DHT22;54665;51.462;6.698;2022-08-19T01:49:02;16.16;96.19
67862;DHT22;54665;51.462;6.698;2022-08-19T01:51:28;16.17;96.17
67862;DHT22;54665;51.462;6.698;2022-08-19T01:53:54;16.16;96.17
67862;DHT22;54665;51.462;6.698;2022-08-19T01:56:20;16.21;96.23
67862;DHT22;54665;51.462;6.698;2022-08-19T01:58:54;16.18;96.20
67862;DHT22;54665;51.462;6.698;2022-08-19T02:01:20;16.13;96.26
67862;DHT22;54665;51.462;6.698;2022-08-19T02:03:45;16.06;96.27
67862;DHT22;54665;51.462;6.698;2022-08-19T02:06:11;15.95;96.19
67862;DHT22;54665;51.462;6.698;2022-08-19T02:08:38;15.85;96.19
67862;DHT22;54665;51.462;6.698;2022-08-19T02:11:05;15.83;96.31
67862;DHT22;54665;51.462;6.698;2022-08-19T02:13:32;15.79;96.33
67862;DHT22;54665;51.462;6.698;2022-08-19T02:15:59;15.70;96.31
67862;DHT22;54665;51.462;6.698;2022-08-19T02:18:24;15.82;96.39
67862;DHT22;54665;51.462;6.698;2022-08-19T02:20:50;15.81;96.45
67862;DHT22;54665;51.462;6.698;2022-08-19T02:23:16;15.87;96.54
67862;DHT22;54665;51.462;6.698;2022-08-19T02:25:46;15.81;96.52
67862;DHT22;54665;51.462;6.698;2022-08-19T02:28:12;15.76;96.54
67862;DHT22;54665;51.462;6.698;2022-08-19T02:30:38;15.83;96.60
67862;DHT22;54665;51.462;6.698;2022-08-19T02:33:04;15.92;96.56
67862;DHT22;54665;51.462;6.698;2022-08-19T02:35:30;16.06;96.64
67862;DHT22;54665;51.462;6.698;2022-08-19T02:37:55;16.10;96.67
67862;DHT22;54665;51.462;6.698;2022-08-19T02:40:39;16.14;96.68
67862;DHT22;54665;51.462;6.698;2022-08-19T02:43:07;16.14;96.71
67862;DHT22;54665;51.462;6.698;2022-08-19T02:45:38;16.10;96.73
67862;DHT22;54665;51.462;6.698;2022-08-19T02:48:04;16.05;96.75
67862;DHT22;54665;51.462;6.698;2022-08-19T02:50:30;16.05;96.80
67862;DHT22;54665;51.462;6.698;2022-08-19T02:52:56;16.09;96.81
67862;DHT22;54665;51.462;6.698;2022-08-19T02:55:21;16.12;96.87
67862;DHT22;54665;51.462;6.698;2022-08-19T02:57:48;16.10;96.89
67862;DHT22;54665;51.462;6.698;2022-08-19T03:00:13;16.06;96.89
67862;DHT22;54665;51.462;6.698;2022-08-19T03:02:40;16.05;96.91
67862;DHT22;54665;51.462;6.698;2022-08-19T03:05:07;16.10;96.94
67862;DHT22;54665;51.462;6.698;2022-08-19T03:07:35;16.10;96.98
67862;DHT22;54665;51.462;6.698;2022-08-19T03:10:01;16.16;97.01
67862;DHT22;54665;51.462;6.698;2022-08-19T03:12:26;16.17;97.05
67862;DHT22;54665;51.462;6.698;2022-08-19T03:14:52;16.21;97.02
67862;DHT22;54665;51.462;6.698;2022-08-19T03:17:18;16.23;97.03
67862;DHT22;54665;51.462;6.698;2022-08-19T03:19:43;16.18;97.04
67862;DHT22;54665;51.462;6.698;2022-08-19T03:22:09;16.24;97.00
67862;DHT22;54665;51.462;6.698;2022-08-19T03:24:34;16.36;97.08
67862;DHT22;54665;51.462;6.698;2022-08-19T03:27:00;16.41;97.08
67862;DHT22;54665;51.462;6.698;2022-08-19T03:29:27;16.51;97.12
67862;DHT22;54665;51.462;6.698;2022-08-19T03:31:53;16.47;97.09
67862;DHT22;54665;51.462;6.698;2022-08-19T03:34:30;16.38;97.08
67862;DHT22;54665;51.462;6.698;2022-08-19T03:36:59;16.46;97.09
67862;DHT22;54665;51.462;6.698;2022-08-19T03:39:26;16.47;97.09
67862;DHT22;54665;51.462;6.698;2022-08-19T03:41:53;16.44;97.07
67862;DHT22;54665;51.462;6.698;2022-08-19T03:44:21;16.41;97.05
67862;DHT22;54665;51.462;6.698;2022-08-19T03:46:54;16.31;97.01
67862;DHT22;54665;51.462;6.698;2022-08-19T03:49:22;16.23;96.99
67862;DHT22;54665;51.462;6.698;2022-08-19T03:51:49;16.12;96.98
67862;DHT22;54665;51.462;6.698;2022-08-19T03:54:20;16.10;96.93
67862;DHT22;54665;51.462;6.698;2022-08-19T03:56:47;16.05;96.93
67862;DHT22;54665;51.462;6.698;2022-08-19T03:59:19;15.97;96.92
67862;DHT22;54665;51.462;6.698;2022-08-19T04:01:45;15.86;96.89
67862;DHT22;54665;51.462;6.698;2022-08-19T04:04:11;15.81;96.91
67862;DHT22;54665;51.462;6.698;2022-08-19T04:06:38;15.83;96.98
67862;DHT22;54665;51.462;6.698;2022-08-19T04:09:05;15.79;96.98
67862;DHT22;54665;51.462;6.698;2022-08-19T04:11:36;15.83;96.99
67862;DHT22;54665;51.462;6.698;2022-08-19T04:14:05;15.81;97.04
67862;DHT22;54665;51.462;6.698;2022-08-19T04:16:30;15.75;97.05
67862;DHT22;54665;51.462;6.698;2022-08-19T04:18:56;15.69;97.03
67862;DHT22;54665;51.462;6.698;2022-08-19T04:21:26;15.69;97.05
67862;DHT22;54665;51.462;6.698;2022-08-19T04:23:53;15.66;97.05
67862;DHT22;54665;51.462;6.698;2022-08-19T04:26:22;15.76;97.09
67862;DHT22;54665;51.462;6.698;2022-08-19T04:28:48;15.79;97.11
67862;DHT22;54665;51.462;6.698;2022-08-19T04:31:17;15.85;97.14
67862;DHT22;54665;51.462;6.698;2022-08-19T04:33:42;15.83;97.10
67862;DHT22;54665;51.462;6.698;2022-08-19T04:36:10;15.82;97.11
67862;DHT22;54665;51.462;6.698;2022-08-19T04:38:41;15.78;97.13
67862;DHT22;54665;51.462;6.698;2022-08-19T04:41:06;15.75;97.11
67862;DHT22;54665;51.462;6.698;2022-08-19T04:43:51;15.76;97.11
67862;DHT22;54665;51.462;6.698;2022-08-19T04:46:16;15.83;97.13
67862;DHT22;54665;51.462;6.698;2022-08-19T04:48:42;15.86;97.16
67862;DHT22;54665;51.462;6.698;2022-08-19T04:51:11;15.85;97.19
67862;DHT22;54665;51.462;6.698;2022-08-19T04:53:39;15.85;97.20
67862;DHT22;54665;51.462;6.698;2022-08-19T04:56:14;15.85;97.17
67862;DHT22;54665;51.462;6.698;2022-08-19T04:58:42;15.86;97.18
67862;DHT22;54665;51.462;6.698;2022-08-19T05:01:18;15.86;97.17
67862;DHT22;54665;51.462;6.698;2022-08-19T05:03:44;15.89;97.16
67862;DHT22;54665;51.462;6.698;2022-08-19T05:06:13;15.95;97.12
67862;DHT22;54665;51.462;6.698;2022-08-19T05:08:41;15.93;97.13
67862;DHT22;54665;51.462;6.698;2022-08-19T05:11:19;15.99;97.10
67862;DHT22;54665;51.462;6.698;2022-08-19T05:13:46;16.10;97.11
67862;DHT22;54665;51.462;6.698;2022-08-19T05:16:13;16.14;97.10
67862;DHT22;54665;51.462;6.698;2022-08-19T05:18:39;16.31;97.06
67862;DHT22;54665;51.462;6.698;2022-08-19T05:21:24;16.43;97.02
67862;DHT22;54665;51.462;6.698;2022-08-19T05:24:09;16.50;96.94
67862;DHT22;54665;51.462;6.698;2022-08-19T05:26:36;16.58;96.89
67862;DHT22;54665;51.462;6.698;2022-08-19T05:29:03;16.65;96.74
67862;DHT22;54665;51.462;6.698;2022-08-19T05:31:29;16.71;96.66
67862;DHT22;54665;51.462;6.698;2022-08-19T05:33:54;16.75;96.54
67862;DHT22;54665;51.462;6.698;2022-08-19T05:36:21;16.87;96.40
67862;DHT22;54665;51.462;6.698;2022-08-19T05:38:46;16.92;96.26
67862;DHT22;54665;51.462;6.698;2022-08-19T05:41:14;17.01;95.97
67862;DHT22;54665;51.462;6.698;2022-08-19T05:43:40;17.12;95.79
67862;DHT22;54665;51.462;6.698;2022-08-19T05:46:07;17.22;95.49
67862;DHT22;54665;51.462;6.698;2022-08-19T05:48:33;17.36;94.94
67862;DHT22;54665;51.462;6.698;2022-08-19T05:51:03;17.45;94.83
67862;DHT22;54665;51.462;6.698;2022-08-19T05:53:29;17.49;94.40
67862;DHT22;54665;51.462;6.698;2022-08-19T05:55:54;17.56;94.34
67862;DHT22;54665;51.462;6.698;2022-08-19T05:58:20;17.63;94.08
67862;DHT22;54665;51.462;6.698;2022-08-19T06:00:45;17.69;93.51
67862;DHT22;54665;51.462;6.698;2022-08-19T06:03:11;17.83;93.29
67862;DHT22;54665;51.462;6.698;2022-08-19T06:05:36;17.94;92.64
67862;DHT22;54665;51.462;6.698;2022-08-19T06:08:02;18.00;92.81
67862;DHT22;54665;51.462;6.698;2022-08-19T06:10:28;18.07;91.76
67862;DHT22;54665;51.462;6.698;2022-08-19T06:12:53;18.11;91.76
67862;DHT22;54665;51.462;6.698;2022-08-19T06:15:19;18.18;90.53
67862;DHT22;54665;51.462;6.698;2022-08-19T06:17:47;18.31;90.87
67862;DHT22;54665;51.462;6.698;2022-08-19T06:20:14;18.34;91.22
67862;DHT22;54665;51.462;6.698;2022-08-19T06:22:42;18.38;90.50
67862;DHT22;54665;51.462;6.698;2022-08-19T06:25:08;18.48;90.17
67862;DHT22;54665;51.462;6.698;2022-08-19T06:27:34;18.59;90.21
67862;DHT22;54665;51.462;6.698;2022-08-19T06:30:01;18.58;88.80
67862;DHT22;54665;51.462;6.698;2022-08-19T06:32:27;18.60;88.65
67862;DHT22;54665;51.462;6.698;2022-08-19T06:34:52;18.66;88.66
67862;DHT22;54665;51.462;6.698;2022-08-19T06:37:18;18.76;88.03
67862;DHT22;54665;51.462;6.698;2022-08-19T06:39:44;18.88;87.83
67862;DHT22;54665;51.462;6.698;2022-08-19T06:42:11;18.89;87.05
67862;DHT22;54665;51.462;6.698;2022-08-19T06:44:42;19.03;87.24
67862;DHT22;54665;51.462;6.698;2022-08-19T06:47:11;19.07;86.92
67862;DHT22;54665;51.462;6.698;2022-08-19T06:49:37;19.10;86.52
67862;DHT22;54665;51.462;6.698;2022-08-19T06:52:03;19.11;85.96
67862;DHT22;54665;51.462;6.698;2022-08-19T06:54:29;19.30;85.63
67862;DHT22;54665;51.462;6.698;2022-08-19T06:56:56;19.51;85.00
67862;DHT22;54665;51.462;6.698;2022-08-19T06:59:23;19.99;84.34
67862;DHT22;54665;51.462;6.698;2022-08-19T07:01:54;21.24;80.96
67862;DHT22;54665;51.462;6.698;2022-08-19T07:04:23;22.21;75.27
67862;DHT22;54665;51.462;6.698;2022-08-19T07:06:49;23.16;72.21
67862;DHT22;54665;51.462;6.698;2022-08-19T07:09:17;23.80;69.19
67862;DHT22;54665;51.462;6.698;2022-08-19T07:11:45;24.11;67.37
67862;DHT22;54665;51.462;6.698;2022-08-19T07:14:11;24.13;66.45
67862;DHT22;54665;51.462;6.698;2022-08-19T07:16:37;24.13;66.53
67862;DHT22;54665;51.462;6.698;2022-08-19T07:19:02;24.93;64.78
67862;DHT22;54665;51.462;6.698;2022-08-19T07:21:28;24.73;64.21
67862;DHT22;54665;51.462;6.698;2022-08-19T07:23:55;25.27;63.32
67862;DHT22;54665;51.462;6.698;2022-08-19T07:26:27;24.86;64.24
67862;DHT22;54665;51.462;6.698;2022-08-19T07:28:56;24.96;62.95
67862;DHT22;54665;51.462;6.698;2022-08-19T07:31:25;25.02;62.85
67862;DHT22;54665;51.462;6.698;2022-08-19T07:33:52;25.26;61.00
67862;DHT22;54665;51.462;6.698;2022-08-19T07:36:22;25.46;61.02
67862;DHT22;54665;51.462;6.698;2022-08-19T07:38:49;25.57;60.57
67862;DHT22;54665;51.462;6.698;2022-08-19T07:41:21;25.88;58.94
67862;DHT22;54665;51.462;6.698;2022-08-19T07:43:47;25.74;59.65
67862;DHT22;54665;51.462;6.698;2022-08-19T07:46:13;26.05;59.26
67862;DHT22;54665;51.462;6.698;2022-08-19T07:48:41;26.04;58.89
67862;DHT22;54665;51.462;6.698;2022-08-19T07:51:08;25.40;60.16
67862;DHT22;54665;51.462;6.698;2022-08-19T07:53:34;24.85;62.74
67862;DHT22;54665;51.462;6.698;2022-08-19T07:56:00;24.59;63.02
67862;DHT22;54665;51.462;6.698;2022-08-19T07:58:37;24.65;63.09
67862;DHT22;54665;51.462;6.698;2022-08-19T08:01:04;25.37;59.90
67862;DHT22;54665;51.462;6.698;2022-08-19T08:03:30;25.70;59.44
67862;DHT22;54665;51.462;6.698;2022-08-19T08:06:14;26.29;57.79
67862;DHT22;54665;51.462;6.698;2022-08-19T08:08:59;26.24;57.87
67862;DHT22;54665;51.462;6.698;2022-08-19T08:11:49;26.63;58.02
67862;DHT22;54665;51.462;6.698;2022-08-19T08:14:27;26.93;57.27
67862;DHT22;54665;51.462;6.698;2022-08-19T08:16:53;26.86;56.04
67862;DHT22;54665;51.462;6.698;2022-08-19T08:19:20;27.57;54.66
67862;DHT22;54665;51.462;6.698;2022-08-19T08:21:47;26.49;57.65
67862;DHT22;54665;51.462;6.698;2022-08-19T08:24:12;25.34;59.57
67862;DHT22;54665;51.462;6.698;2022-08-19T08:26:39;25.16;59.46
67862;DHT22;54665;51.462;6.698;2022-08-19T08:29:06;25.28;59.47
67862;DHT22;54665;51.462;6.698;2022-08-19T08:31:36;25.37;61.09
67862;DHT22;54665;51.462;6.698;2022-08-19T08:34:02;25.57;60.25
67862;DHT22;54665;51.462;6.698;2022-08-19T08:36:27;25.54;59.36
67862;DHT22;54665;51.462;6.698;2022-08-19T08:38:53;25.22;60.56
67862;DHT22;54665;51.462;6.698;2022-08-19T08:41:49;25.40;60.15
67862;DHT22;54665;51.462;6.698;2022-08-19T08:47:13;26.38;57.06
67862;DHT22;54665;51.462;6.698;2022-08-19T08:49:41;26.31;57.14
67862;DHT22;54665;51.462;6.698;2022-08-19T08:54:48;26.32;57.38
67862;DHT22;54665;51.462;6.698;2022-08-19T08:57:24;26.76;55.69
67862;DHT22;54665;51.462;6.698;2022-08-19T08:59:53;27.55;53.54
67862;DHT22;54665;51.462;6.698;2022-08-19T09:02:19;27.28;54.01
67862;DHT22;54665;51.462;6.698;2022-08-19T09:04:45;26.49;55.14
67862;DHT22;54665;51.462;6.698;2022-08-19T09:07:58;26.16;56.40
67862;DHT22;54665;51.462;6.698;2022-08-19T09:15:38;26.47;55.64
67862;DHT22;54665;51.462;6.698;2022-08-19T09:18:05;26.83;55.10
67862;DHT22;54665;51.462;6.698;2022-08-19T09:20:31;27.11;53.79
67862;DHT22;54665;51.462;6.698;2022-08-19T09:22:58;26.60;54.43
67862;DHT22;54665;51.462;6.698;2022-08-19T09:25:24;26.21;55.76
67862;DHT22;54665;51.462;6.698;2022-08-19T09:27:51;26.19;56.03
67862;DHT22;54665;51.462;6.698;2022-08-19T09:30:24;26.43;54.92
67862;DHT22;54665;51.462;6.698;2022-08-19T09:32:54;26.39;54.77
67862;DHT22;54665;51.462;6.698;2022-08-19T09:35:22;26.09;55.91
67862;DHT22;54665;51.462;6.698;2022-08-19T09:37:48;25.89;56.07
67862;DHT22;54665;51.462;6.698;2022-08-19T09:40:16;25.58;57.40
67862;DHT22;54665;51.462;6.698;2022-08-19T09:42:43;25.82;56.81
67862;DHT22;54665;51.462;6.698;2022-08-19T09:45:09;25.85;57.02
67862;DHT22;54665;51.462;6.698;2022-08-19T09:47:35;26.35;55.42
67862;DHT22;54665;51.462;6.698;2022-08-19T09:50:07;26.61;54.51
67862;DHT22;54665;51.462;6.698;2022-08-19T09:52:33;26.66;54.68
67862;DHT22;54665;51.462;6.698;2022-08-19T09:55:03;26.66;54.18
67862;DHT22;54665;51.462;6.698;2022-08-19T09:57:29;27.17;53.66
67862;DHT22;54665;51.462;6.698;2022-08-19T09:59:54;27.15;53.06
67862;DHT22;54665;51.462;6.698;2022-08-19T10:02:20;26.97;53.28
67862;DHT22;54665;51.462;6.698;2022-08-19T10:04:45;26.83;53.99
67862;DHT22;54665;51.462;6.698;2022-08-19T10:07:29;27.00;53.83
67862;DHT22;54665;51.462;6.698;2022-08-19T10:09:55;26.32;55.52
67862;DHT22;54665;51.462;6.698;2022-08-19T10:12:21;26.53;55.18
67862;DHT22;54665;51.462;6.698;2022-08-19T10:14:47;27.01;53.12
67862;DHT22;54665;51.462;6.698;2022-08-19T10:17:13;26.42;54.68
67862;DHT22;54665;51.462;6.698;2022-08-19T10:19:40;25.77;56.47
67862;DHT22;54665;51.462;6.698;2022-08-19T10:22:06;25.24;58.00
67862;DHT22;54665;51.462;6.698;2022-08-19T10:24:35;25.73;56.46
67862;DHT22;54665;51.462;6.698;2022-08-19T10:27:01;26.53;54.36
67862;DHT22;54665;51.462;6.698;2022-08-19T10:29:31;26.21;54.81
67862;DHT22;54665;51.462;6.698;2022-08-19T10:32:04;26.55;54.72
67862;DHT22;54665;51.462;6.698;2022-08-19T10:34:30;26.49;53.77
67862;DHT22;54665;51.462;6.698;2022-08-19T10:36:56;26.49;53.03
67862;DHT22;54665;51.462;6.698;2022-08-19T10:39:26;26.39;53.93
67862;DHT22;54665;51.462;6.698;2022-08-19T10:41:54;26.96;52.09
67862;DHT22;54665;51.462;6.698;2022-08-19T10:44:21;26.22;53.72
67862;DHT22;54665;51.462;6.698;2022-08-19T10:46:48;26.47;53.09
67862;DHT22;54665;51.462;6.698;2022-08-19T10:49:14;26.21;53.21
67862;DHT22;54665;51.462;6.698;2022-08-19T10:51:40;26.35;53.13
67862;DHT22;54665;51.462;6.698;2022-08-19T10:54:25;26.43;53.09
67862;DHT22;54665;51.462;6.698;2022-08-19T10:57:11;26.59;52.10
67862;DHT22;54665;51.462;6.698;2022-08-19T10:59:36;26.45;52.70
67862;DHT22;54665;51.462;6.698;2022-08-19T11:02:05;26.90;51.78
67862;DHT22;54665;51.462;6.698;2022-08-19T11:04:32;26.75;52.27
67862;DHT22;54665;51.462;6.698;2022-08-19T11:06:58;27.33;51.27
67862;DHT22;54665;51.462;6.698;2022-08-19T11:09:25;27.51;50.13
67862;DHT22;54665;51.462;6.698;2022-08-19T11:11:52;27.98;49.50
67862;DHT22;54665;51.462;6.698;2022-08-19T11:14:19;28.08;48.66
67862;DHT22;54665;51.462;6.698;2022-08-19T11:16:45;28.16;47.84
67862;DHT22;54665;51.462;6.698;2022-08-19T11:19:11;28.57;47.16
67862;DHT22;54665;51.462;6.698;2022-08-19T11:21:45;27.15;50.01
67862;DHT22;54665;51.462;6.698;2022-08-19T11:24:22;26.77;50.65
67862;DHT22;54665;51.462;6.698;2022-08-19T11:26:49;26.24;49.85
67862;DHT22;54665;51.462;6.698;2022-08-19T11:29:17;26.01;51.83
67862;DHT22;54665;51.462;6.698;2022-08-19T11:31:46;26.42;51.15
67862;DHT22;54665;51.462;6.698;2022-08-19T11:34:16;27.08;48.25
67862;DHT22;54665;51.462;6.698;2022-08-19T11:36:43;26.42;50.34
67862;DHT22;54665;51.462;6.698;2022-08-19T11:39:12;26.36;51.24
67862;DHT22;54665;51.462;6.698;2022-08-19T11:41:38;27.12;48.67
67862;DHT22;54665;51.462;6.698;2022-08-19T11:44:04;27.41;48.30
67862;DHT22;54665;51.462;6.698;2022-08-19T11:46:30;27.86;47.72
67862;DHT22;54665;51.462;6.698;2022-08-19T11:48:57;28.43;45.23
67862;DHT22;54665;51.462;6.698;2022-08-19T11:51:25;28.46;45.10
67862;DHT22;54665;51.462;6.698;2022-08-19T11:53:52;28.05;46.42
67862;DHT22;54665;51.462;6.698;2022-08-19T11:56:18;28.40;46.36
67862;DHT22;54665;51.462;6.698;2022-08-19T11:58:44;28.72;46.05
67862;DHT22;54665;51.462;6.698;2022-08-19T12:01:15;27.30;47.50
67862;DHT22;54665;51.462;6.698;2022-08-19T12:03:41;27.59;47.42
67862;DHT22;54665;51.462;6.698;2022-08-19T12:06:10;28.49;46.79
67862;DHT22;54665;51.462;6.698;2022-08-19T12:08:37;29.29;42.86
67862;DHT22;54665;51.462;6.698;2022-08-19T12:11:04;29.79;42.71
67862;DHT22;54665;51.462;6.698;2022-08-19T12:13:30;29.25;43.49
67862;DHT22;54665;51.462;6.698;2022-08-19T12:15:56;28.39;45.32
67862;DHT22;54665;51.462;6.698;2022-08-19T12:18:23;28.60;44.14
67862;DHT22;54665;51.462;6.698;2022-08-19T12:20:52;27.93;45.48
67862;DHT22;54665;51.462;6.698;2022-08-19T12:23:20;28.09;44.82
67862;DHT22;54665;51.462;6.698;2022-08-19T12:25:47;28.36;44.52
67862;DHT22;54665;51.462;6.698;2022-08-19T12:28:21;29.08;43.14
67862;DHT22;54665;51.462;6.698;2022-08-19T12:30:48;29.89;41.68
67862;DHT22;54665;51.462;6.698;2022-08-19T12:33:14;29.94;40.42
67862;DHT22;54665;51.462;6.698;2022-08-19T12:35:44;29.74;41.46
67862;DHT22;54665;51.462;6.698;2022-08-19T12:38:10;29.55;40.94
67862;DHT22;54665;51.462;6.698;2022-08-19T12:40:37;29.28;41.61
67862;DHT22;54665;51.462;6.698;2022-08-19T12:43:02;28.24;43.91
67862;DHT22;54665;51.462;6.698;2022-08-19T12:45:28;28.71;43.77
67862;DHT22;54665;51.462;6.698;2022-08-19T12:47:54;28.87;41.50
67862;DHT22;54665;51.462;6.698;2022-08-19T12:50:19;29.05;41.43
67862;DHT22;54665;51.462;6.698;2022-08-19T12:52:47;29.23;41.03
67862;DHT22;54665;51.462;6.698;2022-08-19T12:55:13;29.23;41.28
67862;DHT22;54665;51.462;6.698;2022-08-19T12:57:39;29.26;41.40
67862;DHT22;54665;51.462;6.698;2022-08-19T13:00:08;28.75;42.50
67862;DHT22;54665;51.462;6.698;2022-08-19T13:02:39;28.09;43.62
67862;DHT22;54665;51.462;6.698;2022-08-19T13:05:10;28.59;43.01
67862;DHT22;54665;51.462;6.698;2022-08-19T13:07:38;29.02;42.31
67862;DHT22;54665;51.462;6.698;2022-08-19T13:10:05;29.32;42.00
67862;DHT22;54665;51.462;6.698;2022-08-19T13:12:30;29.55;40.60
67862;DHT22;54665;51.462;6.698;2022-08-19T13:14:56;29.19;41.16
67862;DHT22;54665;51.462;6.698;2022-08-19T13:17:21;28.80;41.63
67862;DHT22;54665;51.462;6.698;2022-08-19T13:19:48;28.94;42.17
67862;DHT22;54665;51.462;6.698;2022-08-19T13:22:14;28.94;41.70
67862;DHT22;54665;51.462;6.698;2022-08-19T13:24:39;29.05;41.62
67862;DHT22;54665;51.462;6.698;2022-08-19T13:27:04;29.00;41.81
67862;DHT22;54665;51.462;6.698;2022-08-19T13:29:30;29.33;40.40
67862;DHT22;54665;51.462;6.698;2022-08-19T13:32:14;29.59;39.63
67862;DHT22;54665;51.462;6.698;2022-08-19T13:34:58;29.93;39.98
67862;DHT22;54665;51.462;6.698;2022-08-19T13:37:24;29.69;39.34
67862;DHT22;54665;51.462;6.698;2022-08-19T13:40:28;29.58;39.87
67862;DHT22;54665;51.462;6.698;2022-08-19T13:42:55;29.49;39.10
67862;DHT22;54665;51.462;6.698;2022-08-19T13:45:22;29.53;39.92
67862;DHT22;54665;51.462;6.698;2022-08-19T13:47:50;29.66;40.47
67862;DHT22;54665;51.462;6.698;2022-08-19T13:50:22;29.31;41.33
67862;DHT22;54665;51.462;6.698;2022-08-19T13:52:50;29.23;41.92
67862;DHT22;54665;51.462;6.698;2022-08-19T13:55:16;29.21;42.06
67862;DHT22;54665;51.462;6.698;2022-08-19T13:57:42;29.55;41.46
67862;DHT22;54665;51.462;6.698;2022-08-19T14:00:11;29.46;41.75
67862;DHT22;54665;51.462;6.698;2022-08-19T14:02:37;29.31;42.90
67862;DHT22;54665;51.462;6.698;2022-08-19T14:05:05;29.58;43.81
67862;DHT22;54665;51.462;6.698;2022-08-19T14:07:31;29.84;42.22
67862;DHT22;54665;51.462;6.698;2022-08-19T14:09:57;29.72;42.93
67862;DHT22;54665;51.462;6.698;2022-08-19T14:12:22;29.25;42.83
67862;DHT22;54665;51.462;6.698;2022-08-19T14:14:48;29.07;42.94
67862;DHT22;54665;51.462;6.698;2022-08-19T14:17:14;28.72;43.70
67862;DHT22;54665;51.462;6.698;2022-08-19T14:19:40;28.84;42.71
67862;DHT22;54665;51.462;6.698;2022-08-19T14:22:05;29.14;42.92
67862;DHT22;54665;51.462;6.698;2022-08-19T14:24:31;29.40;42.35
67862;DHT22;54665;51.462;6.698;2022-08-19T14:27:00;29.80;40.92
67862;DHT22;54665;51.462;6.698;2022-08-19T14:29:26;29.33;40.64
67862;DHT22;54665;51.462;6.698;2022-08-19T14:31:53;28.82;40.04
67862;DHT22;54665;51.462;6.698;2022-08-19T14:34:19;28.84;41.31
67862;DHT22;54665;51.462;6.698;2022-08-19T14:36:44;29.26;39.89
67862;DHT22;54665;51.462;6.698;2022-08-19T14:39:11;29.07;37.85
67862;DHT22;54665;51.462;6.698;2022-08-19T14:41:40;29.36;38.18
67862;DHT22;54665;51.462;6.698;2022-08-19T14:44:06;28.80;35.98
67862;DHT22;54665;51.462;6.698;2022-08-19T14:46:31;29.11;37.86
67862;DHT22;54665;51.462;6.698;2022-08-19T14:48:57;29.25;37.70
67862;DHT22;54665;51.462;6.698;2022-08-19T14:51:23;29.53;38.39
67862;DHT22;54665;51.462;6.698;2022-08-19T14:53:50;29.55;39.00
67862;DHT22;54665;51.462;6.698;2022-08-19T14:56:18;29.72;38.07
67862;DHT22;54665;51.462;6.698;2022-08-19T14:58:44;29.22;38.83
67862;DHT22;54665;51.462;6.698;2022-08-19T15:01:11;29.12;39.37
67862;DHT22;54665;51.462;6.698;2022-08-19T15:03:37;29.16;40.38
67862;DHT22;54665;51.462;6.698;2022-08-19T15:06:04;29.11;40.87
67862;DHT22;54665;51.462;6.698;2022-08-19T15:08:31;29.31;40.36
67862;DHT22;54665;51.462;6.698;2022-08-19T15:10:58;29.00;40.26
67862;DHT22;54665;51.462;6.698;2022-08-19T15:13:25;28.95;40.66
67862;DHT22;54665;51.462;6.698;2022-08-19T15:15:51;29.02;40.29
67862;DHT22;54665;51.462;6.698;2022-08-19T15:18:17;28.64;40.11
67862;DHT22;54665;51.462;6.698;2022-08-19T15:20:45;28.21;40.74
67862;DHT22;54665;51.462;6.698;2022-08-19T15:23:12;28.47;40.97
67862;DHT22;54665;51.462;6.698;2022-08-19T15:25:38;28.91;41.59
67862;DHT22;54665;51.462;6.698;2022-08-19T15:28:04;29.79;39.86
67862;DHT22;54665;51.462;6.698;2022-08-19T15:30:29;30.23;39.51
67862;DHT22;54665;51.462;6.698;2022-08-19T15:32:57;29.60;37.35
67862;DHT22;54665;51.462;6.698;2022-08-19T15:35:23;29.42;39.98
67862;DHT22;54665;51.462;6.698;2022-08-19T15:37:50;29.36;40.54
67862;DHT22;54665;51.462;6.698;2022-08-19T15:40:17;29.55;40.28
67862;DHT22;54665;51.462;6.698;2022-08-19T15:42:43;28.90;41.32
67862;DHT22;54665;51.462;6.698;2022-08-19T15:45:11;29.02;40.52